sensor_id;sensor_type;location;lat;lon;timestamp;temperature;humidity
17174;DHT22;8702;48.130;-1.696;2023-03-07T00:01:29;7.30;99.90
17174;DHT22;8702;48.130;-1.696;2023-03-07T00:04:00;7.30;99.90
17174;DHT22;8702;48.130;-1.696;2023-03-07T00:06:30;7.30;99.90
17174;DHT22;8702;48.130;-1.696;2023-03-07T00:09:01;7.40;99.90
17174;DHT22;8702;48.130;-1.696;2023-03-07T00:11:30;7.40;99.90
17174;DHT22;8702;48.130;-1.696;2023-03-07T00:13:57;7.40;99.90
17174;DHT22;8702;48.130;-1.696;2023-03-07T00:16:26;7.40;99.90
17174;DHT22;8702;48.130;-1.696;2023-03-07T00:18:54;7.40;99.90
17174;DHT22;8702;48.130;-1.696;2023-03-07T00:21:23;7.40;99.90
17174;DHT22;8702;48.130;-1.696;2023-03-07T00:23:56;7.40;99.90
17174;DHT22;8702;48.130;-1.696;2023-03-07T00:26:24;7.30;99.90
17174;DHT22;8702;48.130;-1.696;2023-03-07T00:28:53;7.30;99.90
17174;DHT22;8702;48.130;-1.696;2023-03-07T00:31:21;7.30;99.90
17174;DHT22;8702;48.130;-1.696;2023-03-07T00:33:48;7.50;99.90
17174;DHT22;8702;48.130;-1.696;2023-03-07T00:36:17;7.50;99.90
17174;DHT22;8702;48.130;-1.696;2023-03-07T00:38:44;7.50;99.90
17174;DHT22;8702;48.130;-1.696;2023-03-07T00:41:14;7.40;99.90
17174;DHT22;8702;48.130;-1.696;2023-03-07T00:43:41;7.30;99.90
17174;DHT22;8702;48.130;-1.696;2023-03-07T00:46:10;7.30;99.90
17174;DHT22;8702;48.130;-1.696;2023-03-07T00:48:38;7.30;99.90
17174;DHT22;8702;48.130;-1.696;2023-03-07T00:51:07;7.30;99.90
17174;DHT22;8702;48.130;-1.696;2023-03-07T00:53:35;7.40;99.90
17174;DHT22;8702;48.130;-1.696;2023-03-07T00:56:04;7.40;99.90
17174;DHT22;8702;48.130;-1.696;2023-03-07T00:58:33;7.30;99.90
17174;DHT22;8702;48.130;-1.696;2023-03-07T01:01:03;7.30;99.90
17174;DHT22;8702;48.130;-1.696;2023-03-07T01:03:32;7.30;99.90
17174;DHT22;8702;48.130;-1.696;2023-03-07T01:06:03;7.30;99.90
17174;DHT22;8702;48.130;-1.696;2023-03-07T01:08:32;7.30;99.90
17174;DHT22;8702;48.130;-1.696;2023-03-07T01:11:00;7.30;99.90
17174;DHT22;8702;48.130;-1.696;2023-03-07T01:13:27;7.30;99.90
17174;DHT22;8702;48.130;-1.696;2023-03-07T01:15:54;7.20;99.90
17174;DHT22;8702;48.130;-1.696;2023-03-07T01:18:21;7.10;99.90
17174;DHT22;8702;48.130;-1.696;2023-03-07T01:20:49;7.10;99.90
17174;DHT22;8702;48.130;-1.696;2023-03-07T01:23:17;7.20;99.90
17174;DHT22;8702;48.130;-1.696;2023-03-07T01:25:44;7.20;99.90
17174;DHT22;8702;48.130;-1.696;2023-03-07T01:28:12;7.10;99.90
17174;DHT22;8702;48.130;-1.696;2023-03-07T01:30:40;7.10;99.90
17174;DHT22;8702;48.130;-1.696;2023-03-07T01:33:08;7.10;99.90
17174;DHT22;8702;48.130;-1.696;2023-03-07T01:35:36;7.20;99.90
17174;DHT22;8702;48.130;-1.696;2023-03-07T01:38:05;7.30;99.90
17174;DHT22;8702;48.130;-1.696;2023-03-07T01:40:32;7.30;99.90
17174;DHT22;8702;48.130;-1.696;2023-03-07T01:43:20;7.20;99.90
17174;DHT22;8702;48.130;-1.696;2023-03-07T01:48:50;7.20;99.90
17174;DHT22;8702;48.130;-1.696;2023-03-07T01:51:18;7.20;99.90
17174;DHT22;8702;48.130;-1.696;2023-03-07T01:53:47;7.20;99.90
17174;DHT22;8702;48.130;-1.696;2023-03-07T01:56:15;7.20;99.90
17174;DHT22;8702;48.130;-1.696;2023-03-07T01:58:42;7.20;99.90
17174;DHT22;8702;48.130;-1.696;2023-03-07T02:01:11;7.20;99.90
17174;DHT22;8702;48.130;-1.696;2023-03-07T02:03:43;7.20;99.90
17174;DHT22;8702;48.130;-1.696;2023-03-07T02:06:13;7.20;99.90
17174;DHT22;8702;48.130;-1.696;2023-03-07T02:08:41;7.30;99.90
17174;DHT22;8702;48.130;-1.696;2023-03-07T02:11:10;7.20;99.90
17174;DHT22;8702;48.130;-1.696;2023-03-07T02:13:38;7.20;99.90
17174;DHT22;8702;48.130;-1.696;2023-03-07T02:16:06;7.20;99.90
17174;DHT22;8702;48.130;-1.696;2023-03-07T02:18:44;7.20;99.90
17174;DHT22;8702;48.130;-1.696;2023-03-07T02:21:20;7.10;99.90
17174;DHT22;8702;48.130;-1.696;2023-03-07T02:23:55;7.10;99.90
17174;DHT22;8702;48.130;-1.696;2023-03-07T02:26:39;7.10;99.90
17174;DHT22;8702;48.130;-1.696;2023-03-07T02:29:06;7.10;99.90
17174;DHT22;8702;48.130;-1.696;2023-03-07T02:31:33;7.20;99.90
17174;DHT22;8702;48.130;-1.696;2023-03-07T02:34:00;7.20;99.90
17174;DHT22;8702;48.130;-1.696;2023-03-07T02:36:29;7.20;99.90
17174;DHT22;8702;48.130;-1.696;2023-03-07T02:39:00;7.20;99.90
17174;DHT22;8702;48.130;-1.696;2023-03-07T02:41:31;7.20;99.90
17174;DHT22;8702;48.130;-1.696;2023-03-07T02:44:00;7.20;99.90
17174;DHT22;8702;48.130;-1.696;2023-03-07T02:46:26;7.20;99.90
17174;DHT22;8702;48.130;-1.696;2023-03-07T02:48:53;7.20;99.90
17174;DHT22;8702;48.130;-1.696;2023-03-07T02:51:20;7.30;99.90
17174;DHT22;8702;48.130;-1.696;2023-03-07T02:53:47;7.20;99.90
17174;DHT22;8702;48.130;-1.696;2023-03-07T02:56:14;7.10;99.90
17174;DHT22;8702;48.130;-1.696;2023-03-07T02:58:41;7.20;99.90
17174;DHT22;8702;48.130;-1.696;2023-03-07T03:01:09;7.20;99.90
17174;DHT22;8702;48.130;-1.696;2023-03-07T03:03:36;7.20;99.90
17174;DHT22;8702;48.130;-1.696;2023-03-07T03:06:03;7.20;99.90
17174;DHT22;8702;48.130;-1.696;2023-03-07T03:08:30;7.20;99.90
17174;DHT22;8702;48.130;-1.696;2023-03-07T03:10:57;7.20;99.90
17174;DHT22;8702;48.130;-1.696;2023-03-07T03:13:24;7.20;99.90
17174;DHT22;8702;48.130;-1.696;2023-03-07T03:15:54;7.10;99.90
17174;DHT22;8702;48.130;-1.696;2023-03-07T03:18:22;7.10;99.90
17174;DHT22;8702;48.130;-1.696;2023-03-07T03:20:49;7.10;99.90
17174;DHT22;8702;48.130;-1.696;2023-03-07T03:23:16;7.10;99.90
17174;DHT22;8702;48.130;-1.696;2023-03-07T03:25:43;7.10;99.90
17174;DHT22;8702;48.130;-1.696;2023-03-07T03:28:10;7.10;99.90
17174;DHT22;8702;48.130;-1.696;2023-03-07T03:30:38;7.20;99.90
17174;DHT22;8702;48.130;-1.696;2023-03-07T03:33:04;7.00;99.90
17174;DHT22;8702;48.130;-1.696;2023-03-07T03:35:33;7.20;99.90
17174;DHT22;8702;48.130;-1.696;2023-03-07T03:38:00;7.30;99.90
17174;DHT22;8702;48.130;-1.696;2023-03-07T03:40:26;7.20;99.90
17174;DHT22;8702;48.130;-1.696;2023-03-07T03:42:53;7.20;99.90
17174;DHT22;8702;48.130;-1.696;2023-03-07T03:45:20;7.10;99.90
17174;DHT22;8702;48.130;-1.696;2023-03-07T03:47:47;7.10;99.90
17174;DHT22;8702;48.130;-1.696;2023-03-07T03:50:16;7.10;99.90
17174;DHT22;8702;48.130;-1.696;2023-03-07T03:52:44;7.20;99.90
17174;DHT22;8702;48.130;-1.696;2023-03-07T03:55:11;7.20;99.90
17174;DHT22;8702;48.130;-1.696;2023-03-07T03:57:38;7.10;99.90
17174;DHT22;8702;48.130;-1.696;2023-03-07T04:00:06;7.10;99.90
17174;DHT22;8702;48.130;-1.696;2023-03-07T04:02:34;7.10;99.90
17174;DHT22;8702;48.130;-1.696;2023-03-07T04:05:01;7.20;99.90
17174;DHT22;8702;48.130;-1.696;2023-03-07T04:07:29;7.20;99.90
17174;DHT22;8702;48.130;-1.696;2023-03-07T04:09:57;7.10;99.90
17174;DHT22;8702;48.130;-1.696;2023-03-07T04:12:24;7.10;99.90
17174;DHT22;8702;48.130;-1.696;2023-03-07T04:14:52;7.10;99.90
17174;DHT22;8702;48.130;-1.696;2023-03-07T04:17:19;7.20;99.90
17174;DHT22;8702;48.130;-1.696;2023-03-07T04:19:46;7.20;99.90
17174;DHT22;8702;48.130;-1.696;2023-03-07T04:22:12;7.20;99.90
17174;DHT22;8702;48.130;-1.696;2023-03-07T04:24:39;7.10;99.90
17174;DHT22;8702;48.130;-1.696;2023-03-07T04:27:08;7.10;99.90
17174;DHT22;8702;48.130;-1.696;2023-03-07T04:29:35;7.10;99.90
17174;DHT22;8702;48.130;-1.696;2023-03-07T04:32:01;7.10;99.90
17174;DHT22;8702;48.130;-1.696;2023-03-07T04:34:28;7.00;99.90
17174;DHT22;8702;48.130;-1.696;2023-03-07T04:36:55;6.90;99.90
17174;DHT22;8702;48.130;-1.696;2023-03-07T04:39:22;7.00;99.90
17174;DHT22;8702;48.130;-1.696;2023-03-07T04:41:49;7.00;99.90
17174;DHT22;8702;48.130;-1.696;2023-03-07T04:44:17;7.10;99.90
17174;DHT22;8702;48.130;-1.696;2023-03-07T04:46:45;7.10;99.90
17174;DHT22;8702;48.130;-1.696;2023-03-07T04:49:12;7.00;99.90
17174;DHT22;8702;48.130;-1.696;2023-03-07T04:51:39;7.10;99.90
17174;DHT22;8702;48.130;-1.696;2023-03-07T04:54:06;7.20;99.90
17174;DHT22;8702;48.130;-1.696;2023-03-07T04:56:33;7.20;99.90
17174;DHT22;8702;48.130;-1.696;2023-03-07T04:58:59;7.20;99.90
17174;DHT22;8702;48.130;-1.696;2023-03-07T05:01:28;7.20;99.90
17174;DHT22;8702;48.130;-1.696;2023-03-07T05:03:55;7.20;99.90
17174;DHT22;8702;48.130;-1.696;2023-03-07T05:06:22;7.20;99.90
17174;DHT22;8702;48.130;-1.696;2023-03-07T05:08:49;7.30;99.90
17174;DHT22;8702;48.130;-1.696;2023-03-07T05:11:16;7.30;99.90
17174;DHT22;8702;48.130;-1.696;2023-03-07T05:13:43;7.20;99.90
17174;DHT22;8702;48.130;-1.696;2023-03-07T05:16:10;7.20;99.90
17174;DHT22;8702;48.130;-1.696;2023-03-07T05:18:38;7.10;99.90
17174;DHT22;8702;48.130;-1.696;2023-03-07T05:21:05;7.10;99.90
17174;DHT22;8702;48.130;-1.696;2023-03-07T05:23:32;7.10;99.90
17174;DHT22;8702;48.130;-1.696;2023-03-07T05:25:59;7.10;99.90
17174;DHT22;8702;48.130;-1.696;2023-03-07T05:28:25;7.10;99.90
17174;DHT22;8702;48.130;-1.696;2023-03-07T05:30:52;7.10;99.90
17174;DHT22;8702;48.130;-1.696;2023-03-07T05:33:19;7.00;99.90
17174;DHT22;8702;48.130;-1.696;2023-03-07T05:35:48;7.10;99.90
17174;DHT22;8702;48.130;-1.696;2023-03-07T05:38:15;7.20;99.90
17174;DHT22;8702;48.130;-1.696;2023-03-07T05:40:41;7.20;99.90
17174;DHT22;8702;48.130;-1.696;2023-03-07T05:43:08;7.10;99.90
17174;DHT22;8702;48.130;-1.696;2023-03-07T05:45:35;7.10;99.90
17174;DHT22;8702;48.130;-1.696;2023-03-07T05:48:02;7.10;99.90
17174;DHT22;8702;48.130;-1.696;2023-03-07T05:50:29;7.20;99.90
17174;DHT22;8702;48.130;-1.696;2023-03-07T05:52:58;7.20;99.90
17174;DHT22;8702;48.130;-1.696;2023-03-07T05:55:25;7.20;99.90
17174;DHT22;8702;48.130;-1.696;2023-03-07T05:57:51;7.30;99.90
17174;DHT22;8702;48.130;-1.696;2023-03-07T06:00:19;7.20;99.90
17174;DHT22;8702;48.130;-1.696;2023-03-07T06:02:46;7.20;99.90
17174;DHT22;8702;48.130;-1.696;2023-03-07T06:05:13;7.10;99.90
17174;DHT22;8702;48.130;-1.696;2023-03-07T06:07:40;7.10;99.90
17174;DHT22;8702;48.130;-1.696;2023-03-07T06:10:14;7.10;99.90
17174;DHT22;8702;48.130;-1.696;2023-03-07T06:12:41;7.10;99.90
17174;DHT22;8702;48.130;-1.696;2023-03-07T06:15:09;7.10;99.90
17174;DHT22;8702;48.130;-1.696;2023-03-07T06:17:36;7.10;99.90
17174;DHT22;8702;48.130;-1.696;2023-03-07T06:20:03;7.10;99.90
17174;DHT22;8702;48.130;-1.696;2023-03-07T06:22:30;7.10;99.90
17174;DHT22;8702;48.130;-1.696;2023-03-07T06:24:59;7.00;99.90
17174;DHT22;8702;48.130;-1.696;2023-03-07T06:27:27;7.10;99.90
17174;DHT22;8702;48.130;-1.696;2023-03-07T06:29:57;7.10;99.90
17174;DHT22;8702;48.130;-1.696;2023-03-07T06:32:24;7.00;99.90
17174;DHT22;8702;48.130;-1.696;2023-03-07T06:34:51;7.00;99.90
17174;DHT22;8702;48.130;-1.696;2023-03-07T06:37:18;7.00;99.90
17174;DHT22;8702;48.130;-1.696;2023-03-07T06:39:47;7.00;99.90
17174;DHT22;8702;48.130;-1.696;2023-03-07T06:42:14;7.00;99.90
17174;DHT22;8702;48.130;-1.696;2023-03-07T06:44:42;7.00;99.90
17174;DHT22;8702;48.130;-1.696;2023-03-07T06:47:09;7.00;99.90
17174;DHT22;8702;48.130;-1.696;2023-03-07T06:49:36;7.00;99.90
17174;DHT22;8702;48.130;-1.696;2023-03-07T06:52:03;7.00;99.90
17174;DHT22;8702;48.130;-1.696;2023-03-07T06:54:30;7.00;99.90
17174;DHT22;8702;48.130;-1.696;2023-03-07T06:56:57;7.00;99.90
17174;DHT22;8702;48.130;-1.696;2023-03-07T06:59:24;7.00;99.90
17174;DHT22;8702;48.130;-1.696;2023-03-07T07:01:52;7.00;99.90
17174;DHT22;8702;48.130;-1.696;2023-03-07T07:04:19;7.00;99.90
17174;DHT22;8702;48.130;-1.696;2023-03-07T07:06:46;7.00;99.90
17174;DHT22;8702;48.130;-1.696;2023-03-07T07:09:13;7.10;99.90
17174;DHT22;8702;48.130;-1.696;2023-03-07T07:11:40;7.10;99.90
17174;DHT22;8702;48.130;-1.696;2023-03-07T07:14:07;7.10;99.90
17174;DHT22;8702;48.130;-1.696;2023-03-07T07:16:34;7.20;99.90
17174;DHT22;8702;48.130;-1.696;2023-03-07T07:19:02;7.20;99.90
17174;DHT22;8702;48.130;-1.696;2023-03-07T07:21:29;7.10;99.90
17174;DHT22;8702;48.130;-1.696;2023-03-07T07:23:56;7.10;99.90
17174;DHT22;8702;48.130;-1.696;2023-03-07T07:26:23;7.00;99.90
17174;DHT22;8702;48.130;-1.696;2023-03-07T07:28:51;7.10;99.90
17174;DHT22;8702;48.130;-1.696;2023-03-07T07:31:17;7.10;99.90
17174;DHT22;8702;48.130;-1.696;2023-03-07T07:33:44;7.10;99.90
17174;DHT22;8702;48.130;-1.696;2023-03-07T07:36:13;7.20;99.90
17174;DHT22;8702;48.130;-1.696;2023-03-07T07:38:40;7.20;99.90
17174;DHT22;8702;48.130;-1.696;2023-03-07T07:41:07;7.10;99.90
17174;DHT22;8702;48.130;-1.696;2023-03-07T07:43:34;7.20;99.90
17174;DHT22;8702;48.130;-1.696;2023-03-07T07:46:02;7.20;99.90
17174;DHT22;8702;48.130;-1.696;2023-03-07T07:48:30;7.30;99.90
17174;DHT22;8702;48.130;-1.696;2023-03-07T07:50:59;7.20;99.90
17174;DHT22;8702;48.130;-1.696;2023-03-07T07:53:28;7.30;99.90
17174;DHT22;8702;48.130;-1.696;2023-03-07T07:55:55;7.30;99.90
17174;DHT22;8702;48.130;-1.696;2023-03-07T07:58:22;7.40;99.90
17174;DHT22;8702;48.130;-1.696;2023-03-07T08:00:49;7.40;99.90
17174;DHT22;8702;48.130;-1.696;2023-03-07T08:03:16;7.40;99.90
17174;DHT22;8702;48.130;-1.696;2023-03-07T08:05:43;7.40;99.90
17174;DHT22;8702;48.130;-1.696;2023-03-07T08:08:12;7.40;99.90
17174;DHT22;8702;48.130;-1.696;2023-03-07T08:10:41;7.40;99.90
17174;DHT22;8702;48.130;-1.696;2023-03-07T08:13:11;7.30;99.90
17174;DHT22;8702;48.130;-1.696;2023-03-07T08:15:38;7.20;99.90
17174;DHT22;8702;48.130;-1.696;2023-03-07T08:18:05;7.20;99.90
17174;DHT22;8702;48.130;-1.696;2023-03-07T08:20:32;7.30;99.90
17174;DHT22;8702;48.130;-1.696;2023-03-07T08:23:00;7.40;99.90
17174;DHT22;8702;48.130;-1.696;2023-03-07T08:25:26;7.40;99.90
17174;DHT22;8702;48.130;-1.696;2023-03-07T08:27:55;7.50;99.90
17174;DHT22;8702;48.130;-1.696;2023-03-07T08:30:23;7.40;99.90
17174;DHT22;8702;48.130;-1.696;2023-03-07T08:32:51;7.40;99.90
17174;DHT22;8702;48.130;-1.696;2023-03-07T08:35:19;7.50;99.90
17174;DHT22;8702;48.130;-1.696;2023-03-07T08:37:46;7.50;99.90
17174;DHT22;8702;48.130;-1.696;2023-03-07T08:40:14;7.50;99.90
17174;DHT22;8702;48.130;-1.696;2023-03-07T08:42:41;7.50;99.90
17174;DHT22;8702;48.130;-1.696;2023-03-07T08:45:10;7.60;99.90
17174;DHT22;8702;48.130;-1.696;2023-03-07T08:47:37;7.60;99.90
17174;DHT22;8702;48.130;-1.696;2023-03-07T08:50:05;7.60;99.90
17174;DHT22;8702;48.130;-1.696;2023-03-07T08:52:34;7.70;99.90
17174;DHT22;8702;48.130;-1.696;2023-03-07T08:55:01;7.70;99.90
17174;DHT22;8702;48.130;-1.696;2023-03-07T08:57:28;7.70;99.90
17174;DHT22;8702;48.130;-1.696;2023-03-07T08:59:55;7.80;99.90
17174;DHT22;8702;48.130;-1.696;2023-03-07T09:02:23;7.80;99.90
17174;DHT22;8702;48.130;-1.696;2023-03-07T09:04:50;7.80;99.90
17174;DHT22;8702;48.130;-1.696;2023-03-07T09:07:17;8.00;99.90
17174;DHT22;8702;48.130;-1.696;2023-03-07T09:09:44;7.90;99.90
17174;DHT22;8702;48.130;-1.696;2023-03-07T09:12:11;8.00;99.90
17174;DHT22;8702;48.130;-1.696;2023-03-07T09:14:38;8.00;99.90
17174;DHT22;8702;48.130;-1.696;2023-03-07T09:17:05;8.10;99.90
17174;DHT22;8702;48.130;-1.696;2023-03-07T09:19:33;8.10;99.90
17174;DHT22;8702;48.130;-1.696;2023-03-07T09:22:00;8.10;99.90
17174;DHT22;8702;48.130;-1.696;2023-03-07T09:24:28;8.20;99.90
17174;DHT22;8702;48.130;-1.696;2023-03-07T09:26:55;8.10;99.90
17174;DHT22;8702;48.130;-1.696;2023-03-07T09:29:22;8.10;99.90
17174;DHT22;8702;48.130;-1.696;2023-03-07T09:31:49;8.00;99.90
17174;DHT22;8702;48.130;-1.696;2023-03-07T09:34:16;8.00;99.90
17174;DHT22;8702;48.130;-1.696;2023-03-07T09:36:44;8.00;99.90
17174;DHT22;8702;48.130;-1.696;2023-03-07T09:39:11;8.10;99.90
17174;DHT22;8702;48.130;-1.696;2023-03-07T09:41:54;8.10;99.90
17174;DHT22;8702;48.130;-1.696;2023-03-07T09:44:45;8.10;99.90
17174;DHT22;8702;48.130;-1.696;2023-03-07T09:47:31;8.10;99.90
17174;DHT22;8702;48.130;-1.696;2023-03-07T09:50:11;8.20;99.90
17174;DHT22;8702;48.130;-1.696;2023-03-07T09:52:40;8.20;99.90
17174;DHT22;8702;48.130;-1.696;2023-03-07T09:55:12;8.30;99.90
17174;DHT22;8702;48.130;-1.696;2023-03-07T09:57:45;8.40;99.90
17174;DHT22;8702;48.130;-1.696;2023-03-07T10:00:19;8.40;99.90
17174;DHT22;8702;48.130;-1.696;2023-03-07T10:02:50;8.50;99.90
17174;DHT22;8702;48.130;-1.696;2023-03-07T10:05:27;8.60;99.90
17174;DHT22;8702;48.130;-1.696;2023-03-07T10:07:57;8.60;99.90
17174;DHT22;8702;48.130;-1.696;2023-03-07T10:10:32;8.70;99.90
17174;DHT22;8702;48.130;-1.696;2023-03-07T10:13:12;8.80;99.90
17174;DHT22;8702;48.130;-1.696;2023-03-07T10:15:45;8.80;99.90
17174;DHT22;8702;48.130;-1.696;2023-03-07T10:18:30;8.90;99.90
17174;DHT22;8702;48.130;-1.696;2023-03-07T10:21:06;8.90;99.90
17174;DHT22;8702;48.130;-1.696;2023-03-07T10:24:04;9.00;99.90
17174;DHT22;8702;48.130;-1.696;2023-03-07T10:26:39;9.00;99.90
17174;DHT22;8702;48.130;-1.696;2023-03-07T10:29:12;9.10;99.90
17174;DHT22;8702;48.130;-1.696;2023-03-07T10:31:41;9.10;99.90
17174;DHT22;8702;48.130;-1.696;2023-03-07T10:34:15;9.10;99.90
17174;DHT22;8702;48.130;-1.696;2023-03-07T10:36:47;9.10;99.90
17174;DHT22;8702;48.130;-1.696;2023-03-07T10:39:24;9.20;99.90
17174;DHT22;8702;48.130;-1.696;2023-03-07T10:41:53;9.20;99.90
17174;DHT22;8702;48.130;-1.696;2023-03-07T10:44:21;9.20;99.80
17174;DHT22;8702;48.130;-1.696;2023-03-07T10:46:53;9.20;99.70
17174;DHT22;8702;48.130;-1.696;2023-03-07T10:49:24;9.20;99.70
17174;DHT22;8702;48.130;-1.696;2023-03-07T10:51:56;9.30;99.90
17174;DHT22;8702;48.130;-1.696;2023-03-07T10:54:29;9.30;99.90
17174;DHT22;8702;48.130;-1.696;2023-03-07T10:57:05;9.50;99.80
17174;DHT22;8702;48.130;-1.696;2023-03-07T10:59:33;9.40;99.40
17174;DHT22;8702;48.130;-1.696;2023-03-07T11:02:02;9.40;98.90
17174;DHT22;8702;48.130;-1.696;2023-03-07T11:04:42;9.40;99.40
17174;DHT22;8702;48.130;-1.696;2023-03-07T11:07:25;9.50;99.40
17174;DHT22;8702;48.130;-1.696;2023-03-07T11:09:55;9.60;99.00
17174;DHT22;8702;48.130;-1.696;2023-03-07T11:12:23;9.50;99.30
17174;DHT22;8702;48.130;-1.696;2023-03-07T11:14:54;9.60;99.40
17174;DHT22;8702;48.130;-1.696;2023-03-07T11:17:24;9.60;99.40
17174;DHT22;8702;48.130;-1.696;2023-03-07T11:19:53;9.70;99.70
17174;DHT22;8702;48.130;-1.696;2023-03-07T11:22:26;9.70;99.40
17174;DHT22;8702;48.130;-1.696;2023-03-07T11:25:01;9.80;99.30
17174;DHT22;8702;48.130;-1.696;2023-03-07T11:27:33;9.80;99.30
17174;DHT22;8702;48.130;-1.696;2023-03-07T11:30:23;9.80;99.50
17174;DHT22;8702;48.130;-1.696;2023-03-07T11:32:59;9.80;99.60
17174;DHT22;8702;48.130;-1.696;2023-03-07T11:35:49;9.80;99.80
17174;DHT22;8702;48.130;-1.696;2023-03-07T11:38:33;9.80;99.70
17174;DHT22;8702;48.130;-1.696;2023-03-07T11:41:12;9.80;99.90
17174;DHT22;8702;48.130;-1.696;2023-03-07T11:43:53;9.80;99.90
17174;DHT22;8702;48.130;-1.696;2023-03-07T11:46:36;9.80;99.80
17174;DHT22;8702;48.130;-1.696;2023-03-07T11:49:15;9.80;99.90
17174;DHT22;8702;48.130;-1.696;2023-03-07T11:51:53;9.90;99.90
17174;DHT22;8702;48.130;-1.696;2023-03-07T11:54:28;9.90;99.90
17174;DHT22;8702;48.130;-1.696;2023-03-07T11:57:09;10.00;99.90
17174;DHT22;8702;48.130;-1.696;2023-03-07T11:59:59;10.00;99.90
17174;DHT22;8702;48.130;-1.696;2023-03-07T12:02:41;10.10;99.90
17174;DHT22;8702;48.130;-1.696;2023-03-07T12:05:32;10.20;99.90
17174;DHT22;8702;48.130;-1.696;2023-03-07T12:11:18;10.10;99.90
17174;DHT22;8702;48.130;-1.696;2023-03-07T12:13:55;10.20;99.90
17174;DHT22;8702;48.130;-1.696;2023-03-07T12:16:31;10.30;99.90
17174;DHT22;8702;48.130;-1.696;2023-03-07T12:19:27;10.20;99.90
17174;DHT22;8702;48.130;-1.696;2023-03-07T12:22:25;10.20;99.90
17174;DHT22;8702;48.130;-1.696;2023-03-07T12:25:20;10.30;99.90
17174;DHT22;8702;48.130;-1.696;2023-03-07T12:27:58;10.20;99.90
17174;DHT22;8702;48.130;-1.696;2023-03-07T12:30:34;10.20;99.90
17174;DHT22;8702;48.130;-1.696;2023-03-07T12:33:04;10.20;99.90
17174;DHT22;8702;48.130;-1.696;2023-03-07T12:35:38;10.30;99.90
17174;DHT22;8702;48.130;-1.696;2023-03-07T12:38:10;10.30;99.90
17174;DHT22;8702;48.130;-1.696;2023-03-07T12:40:40;10.30;99.90
17174;DHT22;8702;48.130;-1.696;2023-03-07T12:43:13;10.30;99.90
17174;DHT22;8702;48.130;-1.696;2023-03-07T12:45:47;10.30;99.90
17174;DHT22;8702;48.130;-1.696;2023-03-07T12:48:20;10.10;99.90
17174;DHT22;8702;48.130;-1.696;2023-03-07T12:50:55;10.10;99.90
17174;DHT22;8702;48.130;-1.696;2023-03-07T12:53:31;10.20;99.90
17174;DHT22;8702;48.130;-1.696;2023-03-07T12:56:04;10.30;99.90
17174;DHT22;8702;48.130;-1.696;2023-03-07T12:58:39;10.30;99.90
17174;DHT22;8702;48.130;-1.696;2023-03-07T13:01:13;10.10;99.90
17174;DHT22;8702;48.130;-1.696;2023-03-07T13:03:45;10.10;99.90
17174;DHT22;8702;48.130;-1.696;2023-03-07T13:06:17;10.10;99.90
17174;DHT22;8702;48.130;-1.696;2023-03-07T13:08:47;10.20;99.90
17174;DHT22;8702;48.130;-1.696;2023-03-07T13:11:19;10.10;99.90
17174;DHT22;8702;48.130;-1.696;2023-03-07T13:13:53;10.20;99.90
17174;DHT22;8702;48.130;-1.696;2023-03-07T13:16:34;10.20;99.90
17174;DHT22;8702;48.130;-1.696;2023-03-07T13:25:41;11.20;99.90
17174;DHT22;8702;48.130;-1.696;2023-03-07T13:28:35;10.20;99.90
17174;DHT22;8702;48.130;-1.696;2023-03-07T13:34:42;10.40;99.90
17174;DHT22;8702;48.130;-1.696;2023-03-07T13:37:50;10.40;99.90
17174;DHT22;8702;48.130;-1.696;2023-03-07T13:43:33;10.40;99.90
17174;DHT22;8702;48.130;-1.696;2023-03-07T13:46:01;10.40;99.90
17174;DHT22;8702;48.130;-1.696;2023-03-07T13:48:57;10.40;99.90
17174;DHT22;8702;48.130;-1.696;2023-03-07T13:51:25;10.50;99.90
17174;DHT22;8702;48.130;-1.696;2023-03-07T13:53:58;10.50;99.90
17174;DHT22;8702;48.130;-1.696;2023-03-07T13:56:27;10.50;99.90
17174;DHT22;8702;48.130;-1.696;2023-03-07T13:58:57;10.50;99.90
17174;DHT22;8702;48.130;-1.696;2023-03-07T14:01:28;10.60;99.90
17174;DHT22;8702;48.130;-1.696;2023-03-07T14:04:01;10.70;99.90
17174;DHT22;8702;48.130;-1.696;2023-03-07T14:06:33;10.70;99.90
17174;DHT22;8702;48.130;-1.696;2023-03-07T14:09:03;10.70;99.90
17174;DHT22;8702;48.130;-1.696;2023-03-07T14:11:38;10.80;99.90
17174;DHT22;8702;48.130;-1.696;2023-03-07T14:17:13;10.60;99.90
17174;DHT22;8702;48.130;-1.696;2023-03-07T14:19:56;10.60;99.90
17174;DHT22;8702;48.130;-1.696;2023-03-07T14:22:39;10.50;99.90
17174;DHT22;8702;48.130;-1.696;2023-03-07T14:25:15;10.50;99.90
17174;DHT22;8702;48.130;-1.696;2023-03-07T14:27:51;10.40;99.90
17174;DHT22;8702;48.130;-1.696;2023-03-07T14:30:19;10.40;99.90
17174;DHT22;8702;48.130;-1.696;2023-03-07T14:32:47;10.40;99.90
17174;DHT22;8702;48.130;-1.696;2023-03-07T14:35:14;10.40;99.90
17174;DHT22;8702;48.130;-1.696;2023-03-07T14:37:44;10.50;99.90
17174;DHT22;8702;48.130;-1.696;2023-03-07T14:40:32;10.40;99.90
17174;DHT22;8702;48.130;-1.696;2023-03-07T14:43:15;10.50;99.90
17174;DHT22;8702;48.130;-1.696;2023-03-07T14:45:49;10.50;99.90
17174;DHT22;8702;48.130;-1.696;2023-03-07T14:48:44;10.30;99.90
17174;DHT22;8702;48.130;-1.696;2023-03-07T14:51:18;10.30;99.90
17174;DHT22;8702;48.130;-1.696;2023-03-07T14:53:47;10.40;99.90
17174;DHT22;8702;48.130;-1.696;2023-03-07T14:56:20;10.30;99.90
17174;DHT22;8702;48.130;-1.696;2023-03-07T14:58:50;10.30;99.90
17174;DHT22;8702;48.130;-1.696;2023-03-07T15:01:18;10.30;99.90
17174;DHT22;8702;48.130;-1.696;2023-03-07T15:03:46;10.20;99.90
17174;DHT22;8702;48.130;-1.696;2023-03-07T15:06:15;10.20;99.90
17174;DHT22;8702;48.130;-1.696;2023-03-07T15:08:42;10.30;99.90
17174;DHT22;8702;48.130;-1.696;2023-03-07T15:11:16;10.30;99.90
17174;DHT22;8702;48.130;-1.696;2023-03-07T15:13:47;10.20;99.90
17174;DHT22;8702;48.130;-1.696;2023-03-07T15:16:18;10.20;99.90
17174;DHT22;8702;48.130;-1.696;2023-03-07T15:18:51;10.20;99.90
17174;DHT22;8702;48.130;-1.696;2023-03-07T15:21:22;10.20;99.90
17174;DHT22;8702;48.130;-1.696;2023-03-07T15:23:50;10.20;99.90
17174;DHT22;8702;48.130;-1.696;2023-03-07T15:26:22;10.20;99.90
17174;DHT22;8702;48.130;-1.696;2023-03-07T15:28:49;10.10;99.90
17174;DHT22;8702;48.130;-1.696;2023-03-07T15:31:23;10.10;99.90
17174;DHT22;8702;48.130;-1.696;2023-03-07T15:33:50;10.10;99.90
17174;DHT22;8702;48.130;-1.696;2023-03-07T15:36:25;10.10;99.90
17174;DHT22;8702;48.130;-1.696;2023-03-07T15:39:11;10.10;99.90
17174;DHT22;8702;48.130;-1.696;2023-03-07T15:41:39;10.20;99.90
17174;DHT22;8702;48.130;-1.696;2023-03-07T15:44:18;10.30;99.90
17174;DHT22;8702;48.130;-1.696;2023-03-07T15:46:48;10.30;99.90
17174;DHT22;8702;48.130;-1.696;2023-03-07T15:49:21;10.30;99.90
17174;DHT22;8702;48.130;-1.696;2023-03-07T15:51:52;10.30;99.90
17174;DHT22;8702;48.130;-1.696;2023-03-07T15:54:34;10.30;99.90
17174;DHT22;8702;48.130;-1.696;2023-03-07T15:57:06;10.40;99.90
17174;DHT22;8702;48.130;-1.696;2023-03-07T15:59:37;10.40;99.90
17174;DHT22;8702;48.130;-1.696;2023-03-07T16:02:40;10.40;99.90
17174;DHT22;8702;48.130;-1.696;2023-03-07T16:05:31;10.40;99.90
17174;DHT22;8702;48.130;-1.696;2023-03-07T16:08:01;10.40;99.90
17174;DHT22;8702;48.130;-1.696;2023-03-07T16:10:29;10.40;99.90
17174;DHT22;8702;48.130;-1.696;2023-03-07T16:13:00;10.50;99.90
17174;DHT22;8702;48.130;-1.696;2023-03-07T16:15:27;10.40;99.90
17174;DHT22;8702;48.130;-1.696;2023-03-07T16:17:54;10.50;99.90
17174;DHT22;8702;48.130;-1.696;2023-03-07T16:20:24;10.50;99.90
17174;DHT22;8702;48.130;-1.696;2023-03-07T16:22:52;10.40;99.90
17174;DHT22;8702;48.130;-1.696;2023-03-07T16:25:20;10.40;99.90
17174;DHT22;8702;48.130;-1.696;2023-03-07T16:27:50;10.40;99.90